createdAt,value
2019-03-06T00:01:23.226Z,5.03
2019-03-06T00:03:52.860Z,4.50
2019-03-06T00:06:22.739Z,4.20
2019-03-06T00:08:51.890Z,6.78
2019-03-06T00:11:20.841Z,6.25
2019-03-06T00:13:49.866Z,8.03
2019-03-06T00:16:19.432Z,7.28
2019-03-06T00:18:48.638Z,7.42
2019-03-06T00:21:17.733Z,10.78
2019-03-06T00:23:46.695Z,11.30
2019-03-06T00:26:15.621Z,13.35
2019-03-06T00:28:44.716Z,9.88
2019-03-06T00:31:13.644Z,9.13
2019-03-06T00:33:43.667Z,10.75
2019-03-06T00:36:16.876Z,12.18
2019-03-06T00:38:46.121Z,10.32
2019-03-06T00:41:20.180Z,10.85
2019-03-06T00:43:49.119Z,11.57
2019-03-06T00:46:19.500Z,14.55
2019-03-06T00:48:48.608Z,10.60
2019-03-06T00:51:18.151Z,9.98
2019-03-06T00:53:47.385Z,11.33
2019-03-06T00:56:16.599Z,12.35
2019-03-06T00:58:45.620Z,10.98
2019-03-06T01:01:15.693Z,12.15
2019-03-06T01:03:45.052Z,10.08
2019-03-06T01:06:14.098Z,11.22
2019-03-06T01:08:43.292Z,11.50
2019-03-06T01:11:12.419Z,10.78
2019-03-06T01:13:41.555Z,9.50
2019-03-06T01:16:10.527Z,9.03
2019-03-06T01:18:39.710Z,10.93
2019-03-06T01:21:08.863Z,29.52
2019-03-06T01:23:38.062Z,34.13
2019-03-06T01:26:07.839Z,33.70
2019-03-06T01:28:37.807Z,32.90
2019-03-06T01:47:51.171Z,31.20
2019-03-06T01:50:20.136Z,25.40
2019-03-06T01:52:48.936Z,29.77
2019-03-06T01:55:18.611Z,23.75
2019-03-06T01:57:47.418Z,26.57
2019-03-06T02:00:18.451Z,22.60
2019-03-06T02:02:47.413Z,25.25
2019-03-06T02:05:16.839Z,31.00
2019-03-06T02:07:45.695Z,23.90
2019-03-06T02:10:14.912Z,26.68
2019-03-06T02:12:44.635Z,25.25
2019-03-06T02:15:14.727Z,23.20
2019-03-06T02:17:43.727Z,21.30
2019-03-06T02:20:14.166Z,24.02
2019-03-06T02:22:43.515Z,23.83
2019-03-06T02:25:12.963Z,23.55
2019-03-06T02:27:42.326Z,27.73
2019-03-06T02:30:13.969Z,31.33
2019-03-06T02:32:43.502Z,32.50
2019-03-06T02:35:12.747Z,30.43
2019-03-06T02:37:41.816Z,30.10
2019-03-06T02:40:11.580Z,30.80
2019-03-06T02:42:40.661Z,33.95
2019-03-06T02:45:10.943Z,29.18
2019-03-06T02:47:39.901Z,31.15
2019-03-06T02:50:10.353Z,36.42
2019-03-06T02:52:40.480Z,31.27
2019-03-06T02:55:10.300Z,28.98
2019-03-06T02:57:40.181Z,27.35
2019-03-06T03:01:15.549Z,25.72
2019-03-06T03:03:50.467Z,27.85
2019-03-06T03:06:23.549Z,27.48
2019-03-06T03:08:53.231Z,30.25
2019-03-06T03:11:22.319Z,24.25
2019-03-06T03:13:51.593Z,25.97
2019-03-06T03:16:20.612Z,26.37
2019-03-06T03:18:49.458Z,23.42
2019-03-06T03:21:18.808Z,24.95
2019-03-06T03:23:47.736Z,25.02
2019-03-06T03:26:16.628Z,27.00
2019-03-06T03:28:46.003Z,24.95
2019-03-06T03:31:15.137Z,25.52
2019-03-06T03:33:44.129Z,24.45
2019-03-06T03:36:13.185Z,26.48
2019-03-06T03:38:42.268Z,29.10
2019-03-06T03:41:11.108Z,28.90
2019-03-06T03:43:40.186Z,26.42
2019-03-06T03:46:09.265Z,29.48
2019-03-06T03:48:38.334Z,24.23
2019-03-06T03:51:07.496Z,26.60
2019-03-06T03:53:36.787Z,24.72
2019-03-06T03:56:05.816Z,25.25
2019-03-06T03:58:34.884Z,25.80
2019-03-06T04:17:50.124Z,32.50
2019-03-06T04:20:19.413Z,27.87
2019-03-06T04:22:48.367Z,70.62
2019-03-06T04:25:17.368Z,89.17
2019-03-06T04:27:46.650Z,72.20
2019-03-06T04:30:15.615Z,80.25
2019-03-06T04:32:45.324Z,54.60
2019-03-06T04:35:14.504Z,62.00
2019-03-06T04:37:43.578Z,45.20
2019-03-06T04:40:13.154Z,58.80
2019-03-06T04:42:42.095Z,39.42
2019-03-06T04:45:11.265Z,35.83
2019-03-06T04:47:40.936Z,33.90
2019-03-06T04:50:10.368Z,32.10
2019-03-06T04:52:40.083Z,35.65
2019-03-06T04:55:09.387Z,28.42
2019-03-06T04:57:39.619Z,30.92
2019-03-06T05:00:10.419Z,27.07
2019-03-06T05:02:39.787Z,28.65
2019-03-06T05:05:09.046Z,29.23
2019-03-06T05:07:38.202Z,33.38
2019-03-06T05:10:07.667Z,39.55
2019-03-06T05:12:36.829Z,37.85
2019-03-06T05:15:06.623Z,48.80
2019-03-06T05:17:41.040Z,54.88
2019-03-06T05:20:10.469Z,62.00
2019-03-06T05:22:39.755Z,58.05
2019-03-06T05:25:09.436Z,67.85
2019-03-06T05:27:38.285Z,87.05
2019-03-06T05:30:07.551Z,96.22
2019-03-06T05:32:37.872Z,86.50
2019-03-06T05:35:27.253Z,81.65
2019-03-06T05:38:10.228Z,80.70
2019-03-06T05:40:39.395Z,79.70
2019-03-06T05:43:08.361Z,90.57
2019-03-06T05:45:37.604Z,68.25
2019-03-06T05:48:06.770Z,60.78
2019-03-06T05:50:36.273Z,59.18
2019-03-06T05:53:05.491Z,63.83
2019-03-06T05:55:34.656Z,58.78
2019-03-06T05:58:04.869Z,57.53
2019-03-06T06:00:34.512Z,59.58
2019-03-06T06:03:03.695Z,50.75
2019-03-06T06:05:33.400Z,42.00
2019-03-06T06:08:02.526Z,38.33
2019-03-06T06:10:31.714Z,36.77
2019-03-06T06:13:00.583Z,37.93
2019-03-06T06:15:29.635Z,36.05
2019-03-06T06:17:58.714Z,35.95
2019-03-06T06:20:27.707Z,31.97
2019-03-06T06:23:04.015Z,27.77
2019-03-06T06:25:34.317Z,30.27
2019-03-06T06:28:03.915Z,28.67
2019-03-06T06:30:33.143Z,28.42
2019-03-06T06:33:02.004Z,26.77
2019-03-06T06:35:31.569Z,27.87
2019-03-06T06:38:00.979Z,26.82
2019-03-06T06:40:30.104Z,22.98
2019-03-06T06:42:59.095Z,18.98
2019-03-06T06:45:28.303Z,23.47
2019-03-06T06:48:07.630Z,23.52
2019-03-06T06:50:36.971Z,20.02
2019-03-06T06:53:42.155Z,23.52
2019-03-06T06:57:39.876Z,23.92
2019-03-06T07:00:18.573Z,30.23
2019-03-06T07:04:07.929Z,23.15
2019-03-06T07:06:49.039Z,24.07
2019-03-06T07:09:54.544Z,19.77
2019-03-06T07:12:42.538Z,21.15
2019-03-06T07:15:38.319Z,31.85
2019-03-06T07:18:13.668Z,20.80
2019-03-06T07:20:47.351Z,23.40
2019-03-06T07:23:23.367Z,23.02
2019-03-06T07:26:12.800Z,19.30
2019-03-06T07:28:47.922Z,23.22
2019-03-06T07:31:21.145Z,24.15
2019-03-06T07:34:57.103Z,25.30
2019-03-06T07:37:35.236Z,29.27
2019-03-06T07:40:11.389Z,29.50
2019-03-06T07:43:18.019Z,35.40
2019-03-06T07:45:52.523Z,46.48
2019-03-06T07:48:27.584Z,51.92
2019-03-06T07:51:04.736Z,56.75
2019-03-06T07:54:49.475Z,49.42
2019-03-06T07:57:27.664Z,41.65
2019-03-06T07:59:57.052Z,40.98
2019-03-06T08:02:31.103Z,39.38
2019-03-06T08:05:00.604Z,30.35
2019-03-06T08:07:29.698Z,29.30
2019-03-06T08:09:58.879Z,26.82
2019-03-06T08:12:36.664Z,24.15
2019-03-06T08:15:12.671Z,21.25
2019-03-06T08:17:46.769Z,25.00
2019-03-06T08:22:26.588Z,22.52
2019-03-06T08:25:00.699Z,26.93
2019-03-06T08:27:30.333Z,25.72
2019-03-06T08:29:59.446Z,23.20
2019-03-06T08:32:31.192Z,40.75
2019-03-06T08:35:00.364Z,25.37
2019-03-06T08:37:29.495Z,26.65
2019-03-06T08:39:58.531Z,26.45
2019-03-06T08:42:27.907Z,27.65
2019-03-06T08:44:57.111Z,26.70
2019-03-06T08:47:31.596Z,29.98
2019-03-06T08:50:05.592Z,31.27
2019-03-06T08:52:40.227Z,100.45
2019-03-06T08:55:16.602Z,32.53
2019-03-06T08:57:51.008Z,28.83
2019-03-06T09:00:30.571Z,28.57
2019-03-06T09:03:06.475Z,27.37
2019-03-06T09:06:10.860Z,24.43
2019-03-06T09:08:45.166Z,25.33
2019-03-06T09:11:20.387Z,24.30
2019-03-06T09:14:52.279Z,28.37
2019-03-06T09:17:27.045Z,23.45
2019-03-06T09:21:04.998Z,25.72
2019-03-06T09:23:47.902Z,29.23
2019-03-06T09:26:35.529Z,26.60
2019-03-06T09:29:11.620Z,23.27
2019-03-06T09:32:48.788Z,26.23
2019-03-06T09:35:28.691Z,24.47
2019-03-06T09:38:10.769Z,25.55
2019-03-06T09:40:41.765Z,27.05
2019-03-06T09:43:16.043Z,26.05
2019-03-06T09:45:57.231Z,23.60
2019-03-06T09:48:30.303Z,27.20
2019-03-06T09:51:09.135Z,26.63
2019-03-06T09:53:42.087Z,29.20
2019-03-06T09:56:18.044Z,29.87
2019-03-06T09:58:55.128Z,25.43
2019-03-06T10:01:29.370Z,27.73
2019-03-06T10:06:09.268Z,28.33
2019-03-06T10:09:17.076Z,29.40
2019-03-06T10:11:51.171Z,28.67
2019-03-06T10:14:55.572Z,32.78
2019-03-06T10:17:30.210Z,30.40
2019-03-06T10:20:02.474Z,24.40
2019-03-06T10:22:31.533Z,26.67
2019-03-06T10:25:00.793Z,27.93
2019-03-06T10:27:29.893Z,28.27
2019-03-06T10:29:59.059Z,19.43
2019-03-06T10:32:28.892Z,21.27
2019-03-06T10:34:57.888Z,16.63
2019-03-06T10:37:27.334Z,18.30
2019-03-06T10:39:56.483Z,17.03
2019-03-06T10:42:25.471Z,14.07
2019-03-06T10:44:54.724Z,12.43
2019-03-06T10:47:23.772Z,10.50
2019-03-06T10:49:53.673Z,10.80
2019-03-06T10:52:22.834Z,9.57
2019-03-06T10:54:52.046Z,10.40
2019-03-06T10:57:21.074Z,5.90
2019-03-06T10:59:50.319Z,9.27
2019-03-06T11:02:19.341Z,6.60
2019-03-06T11:04:59.398Z,7.63
2019-03-06T11:07:28.714Z,9.63
2019-03-06T11:09:58.504Z,7.73
2019-03-06T11:12:27.703Z,6.33
2019-03-06T11:14:56.631Z,5.97
2019-03-06T11:17:26.120Z,6.20
2019-03-06T11:19:55.171Z,7.43
2019-03-06T11:22:24.291Z,9.40
2019-03-06T11:24:53.319Z,7.97
2019-03-06T11:27:22.558Z,10.47
2019-03-06T11:29:52.075Z,8.13
2019-03-06T11:32:21.514Z,8.50
2019-03-06T11:34:50.939Z,5.40
2019-03-06T11:37:20.162Z,7.07
2019-03-06T11:39:49.304Z,8.50
2019-03-06T11:42:18.561Z,7.83
2019-03-06T11:44:47.710Z,11.23
2019-03-06T11:47:16.944Z,7.50
2019-03-06T11:49:46.056Z,4.23
2019-03-06T11:52:15.323Z,6.73
2019-03-06T11:54:44.628Z,8.23
2019-03-06T11:57:13.967Z,8.20
2019-03-06T11:59:43.481Z,9.40
2019-03-06T12:02:12.798Z,8.20
2019-03-06T12:04:41.995Z,9.10
2019-03-06T12:07:11.236Z,11.47
2019-03-06T12:09:40.566Z,9.63
2019-03-06T12:12:10.104Z,7.00
2019-03-06T12:14:39.323Z,10.57
2019-03-06T12:17:08.835Z,11.37
2019-03-06T12:19:37.877Z,5.53
2019-03-06T12:22:07.046Z,8.23
2019-03-06T12:24:36.354Z,8.13
2019-03-06T12:27:05.688Z,7.63
2019-03-06T12:29:34.770Z,8.73
2019-03-06T12:32:04.065Z,9.00
2019-03-06T12:34:33.072Z,7.37
2019-03-06T12:37:02.728Z,9.97
2019-03-06T12:39:32.464Z,6.93
2019-03-06T12:42:02.107Z,5.60
2019-03-06T12:44:31.151Z,5.73
2019-03-06T12:47:00.523Z,9.57
2019-03-06T12:49:30.575Z,8.33
2019-03-06T12:51:59.580Z,6.73
2019-03-06T12:54:28.675Z,4.07
2019-03-06T12:56:58.592Z,5.70
2019-03-06T12:59:27.853Z,8.53
2019-03-06T13:01:57.444Z,7.07
2019-03-06T13:04:26.394Z,6.37
2019-03-06T13:06:55.464Z,8.30
2019-03-06T13:09:24.496Z,8.90
2019-03-06T13:11:53.547Z,6.13
2019-03-06T13:14:22.851Z,8.40
2019-03-06T13:16:52.512Z,6.03
2019-03-06T13:19:21.543Z,4.00
2019-03-06T13:21:50.854Z,4.67
2019-03-06T13:24:19.887Z,6.17
2019-03-06T13:26:49.074Z,8.03
2019-03-06T13:29:18.284Z,5.93
2019-03-06T13:31:47.319Z,5.23
2019-03-06T13:34:52.159Z,5.00
2019-03-06T13:37:20.508Z,3.67
2019-03-06T13:39:50.113Z,4.80
2019-03-06T13:42:19.344Z,7.80
2019-03-06T13:44:48.499Z,6.77
2019-03-06T13:47:17.728Z,4.07
2019-03-06T13:49:47.470Z,4.80
2019-03-06T13:52:17.096Z,6.37
2019-03-06T13:54:46.655Z,6.37
2019-03-06T13:57:16.376Z,10.47
2019-03-06T13:59:45.907Z,9.37
2019-03-06T14:02:14.796Z,9.03
2019-03-06T14:04:44.135Z,6.20
2019-03-06T14:07:13.160Z,7.53
2019-03-06T14:09:42.398Z,5.63
2019-03-06T14:12:11.763Z,5.50
2019-03-06T14:14:40.717Z,9.97
2019-03-06T14:17:10.019Z,9.00
2019-03-06T14:19:39.150Z,6.93
2019-03-06T14:22:08.500Z,7.53
2019-03-06T14:24:37.680Z,8.07
2019-03-06T14:27:07.364Z,7.33
2019-03-06T14:29:36.603Z,5.67
2019-03-06T14:32:14.115Z,12.40
2019-03-06T14:34:36.755Z,5.63
2019-03-06T14:37:06.388Z,6.70
2019-03-06T14:39:35.380Z,5.53
2019-03-06T14:42:05.369Z,5.87
2019-03-06T14:44:34.482Z,5.43
2019-03-06T14:47:03.674Z,5.10
2019-03-06T14:49:33.448Z,5.33
2019-03-06T14:52:07.300Z,6.80
2019-03-06T14:54:31.766Z,4.00
2019-03-06T14:57:01.131Z,8.43
2019-03-06T14:59:30.089Z,5.60
2019-03-06T15:01:59.086Z,5.53
2019-03-06T15:04:28.536Z,5.73
2019-03-06T15:06:57.658Z,5.30
2019-03-06T15:09:27.780Z,6.40
2019-03-06T15:11:57.107Z,8.83
2019-03-06T15:14:35.531Z,6.97
2019-03-06T15:16:55.604Z,7.80
2019-03-06T15:19:24.628Z,6.43
2019-03-06T15:21:53.761Z,5.23
2019-03-06T15:24:22.959Z,7.63
2019-03-06T15:26:52.026Z,8.93
2019-03-06T15:29:21.675Z,11.87
2019-03-06T15:31:51.577Z,6.70
2019-03-06T15:54:26.244Z,12.37
2019-03-06T15:56:55.981Z,9.23
2019-03-06T15:59:25.157Z,8.50
2019-03-06T16:01:54.159Z,12.33
2019-03-06T16:21:08.889Z,65.23
2019-03-06T16:23:38.664Z,27.03
2019-03-06T16:26:07.822Z,18.87
2019-03-06T16:28:37.018Z,15.90
2019-03-06T16:31:06.039Z,15.03
2019-03-06T16:33:35.043Z,15.77
2019-03-06T16:36:04.331Z,20.30
2019-03-06T16:38:33.801Z,16.80
2019-03-06T16:41:03.484Z,13.27
2019-03-06T16:43:32.915Z,15.03
2019-03-06T16:46:02.814Z,16.07
2019-03-06T16:48:31.814Z,19.10
2019-03-06T16:51:00.998Z,17.90
2019-03-06T16:53:30.335Z,19.20
2019-03-06T16:55:59.574Z,28.13
2019-03-06T16:58:28.716Z,32.93
2019-03-06T17:00:58.804Z,21.30
2019-03-06T17:03:28.492Z,20.20
2019-03-06T17:05:57.715Z,22.73
2019-03-06T17:08:27.927Z,19.37
2019-03-06T17:10:57.418Z,23.83
2019-03-06T17:13:27.113Z,32.60
2019-03-06T17:15:57.777Z,22.10
2019-03-06T17:18:27.058Z,27.13
2019-03-06T17:20:56.439Z,39.70
2019-03-06T17:23:25.492Z,24.60
2019-03-06T17:25:54.692Z,36.97
2019-03-06T17:28:23.963Z,45.67
2019-03-06T17:30:53.072Z,75.53
2019-03-06T17:33:22.636Z,125.10
2019-03-06T17:35:51.718Z,105.23
2019-03-06T17:38:20.904Z,113.10
2019-03-06T17:40:49.961Z,83.43
2019-03-06T18:00:04.676Z,29.07
2019-03-06T18:02:34.356Z,32.10
2019-03-06T18:05:03.638Z,36.95
2019-03-06T18:07:33.279Z,39.35
2019-03-06T18:10:02.806Z,35.17
2019-03-06T18:12:32.523Z,35.70
2019-03-06T18:15:01.656Z,39.83
2019-03-06T18:17:30.699Z,35.38
2019-03-06T18:19:59.745Z,37.33
2019-03-06T18:22:28.826Z,34.70
2019-03-06T18:41:44.873Z,39.18
2019-03-06T18:44:13.922Z,41.13
2019-03-06T18:46:43.545Z,43.15
2019-03-06T18:49:12.999Z,44.60
2019-03-06T19:08:31.312Z,41.10
2019-03-06T19:10:56.410Z,45.35
2019-03-06T19:13:25.564Z,47.03
2019-03-06T19:15:54.697Z,37.38
2019-03-06T19:18:24.131Z,33.58
2019-03-06T19:20:53.706Z,33.90
2019-03-06T19:23:22.863Z,35.83
2019-03-06T19:25:52.150Z,37.53
2019-03-06T19:28:21.507Z,38.30
2019-03-06T19:30:50.569Z,30.50
2019-03-06T19:33:19.959Z,34.25
2019-03-06T19:35:49.626Z,38.53
2019-03-06T19:38:18.689Z,41.83
2019-03-06T19:40:48.089Z,38.47
2019-03-06T19:43:17.894Z,40.00
2019-03-06T19:45:47.511Z,34.85
2019-03-06T19:48:16.821Z,26.07
2019-03-06T19:50:45.808Z,27.00
2019-03-06T19:53:14.857Z,21.17
2019-03-06T19:55:44.131Z,13.50
2019-03-06T19:58:13.324Z,14.78
2019-03-06T20:00:42.276Z,15.53
2019-03-06T20:03:11.552Z,21.02
2019-03-06T20:05:41.685Z,17.73
2019-03-06T20:08:11.900Z,12.18
2019-03-06T20:10:41.660Z,17.05
2019-03-06T20:13:11.556Z,13.53
2019-03-06T20:15:40.657Z,18.73
2019-03-06T20:18:09.876Z,14.90
2019-03-06T20:20:38.938Z,15.18
2019-03-06T20:23:08.057Z,17.25
2019-03-06T20:25:37.277Z,15.58
2019-03-06T20:28:07.736Z,15.45
2019-03-06T20:30:36.679Z,14.63
2019-03-06T20:33:05.906Z,15.48
2019-03-06T20:35:35.055Z,14.63
2019-03-06T20:38:04.335Z,17.57
2019-03-06T20:40:33.620Z,21.62
2019-03-06T20:43:02.888Z,54.15
2019-03-06T20:45:32.055Z,29.40
2019-03-06T20:48:01.712Z,15.23
2019-03-06T21:07:16.129Z,23.00
2019-03-06T21:09:45.748Z,21.77
2019-03-06T21:12:15.151Z,26.65
2019-03-06T21:14:44.856Z,19.85
2019-03-06T21:17:15.186Z,19.95
2019-03-06T21:19:44.176Z,24.52
2019-03-06T21:22:13.511Z,23.50
2019-03-06T21:24:42.778Z,47.00
2019-03-06T21:27:11.893Z,50.03
2019-03-06T21:29:41.264Z,42.38
2019-03-06T21:32:10.447Z,62.17
2019-03-06T21:34:39.555Z,61.20
2019-03-06T21:37:08.403Z,53.40
2019-03-06T21:39:37.938Z,60.43
2019-03-06T21:42:07.087Z,66.22
2019-03-06T21:44:36.087Z,64.75
2019-03-06T21:47:05.348Z,56.83
2019-03-06T21:49:34.519Z,35.83
2019-03-06T21:52:03.802Z,39.35
2019-03-06T21:54:32.933Z,44.77
2019-03-06T21:57:01.853Z,79.32
2019-03-06T21:59:31.911Z,42.33
2019-03-06T22:02:00.785Z,37.78
2019-03-06T22:04:29.736Z,30.65
2019-03-06T22:06:58.745Z,36.05
2019-03-06T22:09:27.941Z,31.48
2019-03-06T22:11:57.017Z,35.23
2019-03-06T22:14:26.284Z,31.05
2019-03-06T22:16:55.239Z,43.25
2019-03-06T22:19:24.256Z,37.50
2019-03-06T22:21:53.339Z,40.08
2019-03-06T22:24:22.598Z,56.50
2019-03-06T22:26:51.487Z,33.15
2019-03-06T22:29:20.617Z,45.90
2019-03-06T22:31:49.815Z,43.68
2019-03-06T22:51:04.162Z,31.25
2019-03-06T22:53:34.025Z,32.67
2019-03-06T22:56:03.205Z,40.95
2019-03-06T22:58:32.186Z,46.15
2019-03-06T23:01:25.539Z,57.95
2019-03-06T23:03:55.381Z,48.23
2019-03-06T23:06:25.149Z,42.05
2019-03-06T23:08:54.219Z,45.63
2019-03-06T23:11:23.680Z,48.83
2019-03-06T23:13:52.948Z,46.10
2019-03-06T23:16:23.014Z,37.23
2019-03-06T23:18:52.984Z,35.92
2019-03-06T23:21:22.183Z,38.48
2019-03-06T23:57:22.303Z,34.65
2019-03-06T23:59:51.761Z,32.00
